sensor_id;sensor_type;location;lat;lon;timestamp;pressure;altitude;pressure_sealevel;temperature;humidity
6218;BME280;3142;48.206;11.550;2022-11-14T00:00:04;95823.50;;;7.15;87.36
6218;BME280;3142;48.206;11.550;2022-11-14T00:02:31;95830.13;;;7.17;86.46
6218;BME280;3142;48.206;11.550;2022-11-14T00:04:57;95824.38;;;7.22;86.88
6218;BME280;3142;48.206;11.550;2022-11-14T00:07:24;95832.19;;;7.22;86.66
6218;BME280;3142;48.206;11.550;2022-11-14T00:09:52;95815.41;;;7.24;87.30
6218;BME280;3142;48.206;11.550;2022-11-14T00:12:18;95812.81;;;7.24;86.65
6218;BME280;3142;48.206;11.550;2022-11-14T00:14:44;95821.78;;;7.22;87.13
6218;BME280;3142;48.206;11.550;2022-11-14T00:17:11;95820.16;;;7.21;86.82
6218;BME280;3142;48.206;11.550;2022-11-14T00:19:37;95814.06;;;7.13;86.64
6218;BME280;3142;48.206;11.550;2022-11-14T00:22:04;95817.72;;;7.04;87.63
6218;BME280;3142;48.206;11.550;2022-11-14T00:24:31;95813.41;;;7.11;87.52
6218;BME280;3142;48.206;11.550;2022-11-14T00:26:58;95806.09;;;7.15;88.06
6218;BME280;3142;48.206;11.550;2022-11-14T00:29:25;95798.53;;;7.20;87.56
6218;BME280;3142;48.206;11.550;2022-11-14T00:31:51;95795.75;;;7.22;87.28
6218;BME280;3142;48.206;11.550;2022-11-14T00:34:18;95789.66;;;7.15;86.81
6218;BME280;3142;48.206;11.550;2022-11-14T00:36:44;95798.47;;;7.13;87.72
6218;BME280;3142;48.206;11.550;2022-11-14T00:39:11;95797.34;;;7.08;87.31
6218;BME280;3142;48.206;11.550;2022-11-14T00:41:38;95786.72;;;6.95;86.38
6218;BME280;3142;48.206;11.550;2022-11-14T00:44:07;95780.94;;;6.84;87.43
6218;BME280;3142;48.206;11.550;2022-11-14T00:46:35;95768.03;;;6.76;88.46
6218;BME280;3142;48.206;11.550;2022-11-14T00:49:03;95768.69;;;6.70;88.19
6218;BME280;3142;48.206;11.550;2022-11-14T00:51:29;95781.38;;;6.73;89.36
6218;BME280;3142;48.206;11.550;2022-11-14T00:53:56;95798.06;;;6.79;88.77
6218;BME280;3142;48.206;11.550;2022-11-14T00:56:22;95807.53;;;6.95;89.28
6218;BME280;3142;48.206;11.550;2022-11-14T00:58:48;95815.28;;;7.03;88.67
6218;BME280;3142;48.206;11.550;2022-11-14T01:01:16;95813.84;;;7.00;86.85
6218;BME280;3142;48.206;11.550;2022-11-14T01:03:46;95815.34;;;6.95;87.92
6218;BME280;3142;48.206;11.550;2022-11-14T01:06:13;95819.31;;;6.82;88.65
6218;BME280;3142;48.206;11.550;2022-11-14T01:08:40;95812.81;;;6.87;88.08
6218;BME280;3142;48.206;11.550;2022-11-14T01:11:08;95817.31;;;6.93;88.36
6218;BME280;3142;48.206;11.550;2022-11-14T01:13:35;95810.94;;;6.95;87.92
6218;BME280;3142;48.206;11.550;2022-11-14T01:16:02;95799.56;;;6.96;88.27
6218;BME280;3142;48.206;11.550;2022-11-14T01:18:30;95802.69;;;6.92;88.96
6218;BME280;3142;48.206;11.550;2022-11-14T01:20:57;95790.59;;;6.99;88.20
6218;BME280;3142;48.206;11.550;2022-11-14T01:23:24;95796.53;;;7.07;88.34
6218;BME280;3142;48.206;11.550;2022-11-14T01:25:50;95813.31;;;7.05;87.44
6218;BME280;3142;48.206;11.550;2022-11-14T01:28:18;95806.63;;;6.88;88.31
6218;BME280;3142;48.206;11.550;2022-11-14T01:30:45;95809.06;;;6.89;88.38
6218;BME280;3142;48.206;11.550;2022-11-14T01:33:11;95813.38;;;6.97;87.13
6218;BME280;3142;48.206;11.550;2022-11-14T01:35:39;95817.44;;;6.99;88.08
6218;BME280;3142;48.206;11.550;2022-11-14T01:38:05;95814.16;;;6.97;87.45
6218;BME280;3142;48.206;11.550;2022-11-14T01:40:32;95809.50;;;6.93;88.26
6218;BME280;3142;48.206;11.550;2022-11-14T01:43:25;95805.38;;;6.98;88.63
6218;BME280;3142;48.206;11.550;2022-11-14T01:45:55;95815.72;;;7.06;87.78
6218;BME280;3142;48.206;11.550;2022-11-14T01:48:25;95810.53;;;7.06;87.38
6218;BME280;3142;48.206;11.550;2022-11-14T01:50:56;95799.84;;;7.01;87.04
6218;BME280;3142;48.206;11.550;2022-11-14T01:53:25;95788.47;;;7.02;87.13
6218;BME280;3142;48.206;11.550;2022-11-14T01:55:53;95786.75;;;7.09;88.03
6218;BME280;3142;48.206;11.550;2022-11-14T01:58:21;95787.38;;;7.11;87.68
6218;BME280;3142;48.206;11.550;2022-11-14T02:00:48;95774.56;;;7.10;87.93
6218;BME280;3142;48.206;11.550;2022-11-14T02:03:15;95775.66;;;7.16;86.83
6218;BME280;3142;48.206;11.550;2022-11-14T02:05:43;95763.84;;;7.13;87.42
6218;BME280;3142;48.206;11.550;2022-11-14T02:08:14;95763.16;;;7.11;87.39
6218;BME280;3142;48.206;11.550;2022-11-14T02:10:41;95760.31;;;7.06;86.80
6218;BME280;3142;48.206;11.550;2022-11-14T02:13:08;95766.84;;;7.02;87.25
6218;BME280;3142;48.206;11.550;2022-11-14T02:15:35;95770.88;;;7.04;87.36
6218;BME280;3142;48.206;11.550;2022-11-14T02:18:02;95768.91;;;7.06;87.35
6218;BME280;3142;48.206;11.550;2022-11-14T02:20:35;95766.94;;;7.08;88.14
6218;BME280;3142;48.206;11.550;2022-11-14T02:23:02;95757.88;;;7.04;87.22
6218;BME280;3142;48.206;11.550;2022-11-14T02:25:29;95755.47;;;7.03;87.87
6218;BME280;3142;48.206;11.550;2022-11-14T02:27:56;95752.22;;;7.01;86.91
6218;BME280;3142;48.206;11.550;2022-11-14T02:30:23;95756.63;;;7.00;87.52
6218;BME280;3142;48.206;11.550;2022-11-14T02:32:50;95754.53;;;6.96;87.08
6218;BME280;3142;48.206;11.550;2022-11-14T02:35:17;95761.72;;;6.94;86.50
6218;BME280;3142;48.206;11.550;2022-11-14T02:37:44;95760.81;;;6.87;87.46
6218;BME280;3142;48.206;11.550;2022-11-14T02:40:11;95764.38;;;6.86;87.10
6218;BME280;3142;48.206;11.550;2022-11-14T02:42:38;95779.06;;;6.78;86.89
6218;BME280;3142;48.206;11.550;2022-11-14T02:45:05;95788.38;;;6.73;87.69
6218;BME280;3142;48.206;11.550;2022-11-14T02:47:32;95790.66;;;6.45;86.52
6218;BME280;3142;48.206;11.550;2022-11-14T02:49:58;95770.91;;;6.36;88.23
6218;BME280;3142;48.206;11.550;2022-11-14T02:52:25;95779.13;;;6.47;88.29
6218;BME280;3142;48.206;11.550;2022-11-14T02:54:52;95775.81;;;6.53;88.30
6218;BME280;3142;48.206;11.550;2022-11-14T02:57:19;95763.28;;;6.57;87.38
6218;BME280;3142;48.206;11.550;2022-11-14T02:59:45;95751.22;;;6.64;87.89
6218;BME280;3142;48.206;11.550;2022-11-14T03:02:12;95752.19;;;6.63;86.73
6218;BME280;3142;48.206;11.550;2022-11-14T03:04:39;95747.81;;;6.64;86.85
6218;BME280;3142;48.206;11.550;2022-11-14T03:07:05;95747.00;;;6.63;87.11
6218;BME280;3142;48.206;11.550;2022-11-14T03:09:31;95739.31;;;6.70;86.58
6218;BME280;3142;48.206;11.550;2022-11-14T03:11:59;95731.44;;;6.78;86.72
6218;BME280;3142;48.206;11.550;2022-11-14T03:14:26;95732.72;;;6.82;86.08
6218;BME280;3142;48.206;11.550;2022-11-14T03:16:55;95732.88;;;6.80;85.78
6218;BME280;3142;48.206;11.550;2022-11-14T03:19:21;95735.78;;;6.86;85.44
6218;BME280;3142;48.206;11.550;2022-11-14T03:21:48;95740.44;;;6.90;84.88
6218;BME280;3142;48.206;11.550;2022-11-14T03:24:14;95747.00;;;6.86;84.91
6218;BME280;3142;48.206;11.550;2022-11-14T03:26:41;95754.00;;;6.86;84.25
6218;BME280;3142;48.206;11.550;2022-11-14T03:29:08;95747.06;;;6.78;84.88
6218;BME280;3142;48.206;11.550;2022-11-14T03:31:35;95736.19;;;6.74;84.53
6218;BME280;3142;48.206;11.550;2022-11-14T03:34:01;95734.69;;;6.80;84.70
6218;BME280;3142;48.206;11.550;2022-11-14T03:36:28;95733.25;;;6.77;84.18
6218;BME280;3142;48.206;11.550;2022-11-14T03:38:54;95729.84;;;6.77;84.79
6218;BME280;3142;48.206;11.550;2022-11-14T03:41:21;95743.06;;;6.67;84.95
6218;BME280;3142;48.206;11.550;2022-11-14T03:43:47;95732.78;;;6.51;84.68
6218;BME280;3142;48.206;11.550;2022-11-14T03:46:15;95731.66;;;6.31;85.35
6218;BME280;3142;48.206;11.550;2022-11-14T03:48:41;95726.34;;;6.47;85.65
6218;BME280;3142;48.206;11.550;2022-11-14T03:51:08;95714.31;;;6.46;85.52
6218;BME280;3142;48.206;11.550;2022-11-14T03:53:34;95724.59;;;6.39;85.48
6218;BME280;3142;48.206;11.550;2022-11-14T03:56:01;95728.69;;;6.34;85.48
6218;BME280;3142;48.206;11.550;2022-11-14T03:58:27;95733.13;;;6.25;85.88
6218;BME280;3142;48.206;11.550;2022-11-14T04:00:54;95739.88;;;6.11;85.69
6218;BME280;3142;48.206;11.550;2022-11-14T04:03:22;95743.34;;;5.96;86.73
6218;BME280;3142;48.206;11.550;2022-11-14T04:05:49;95754.63;;;6.11;87.21
6218;BME280;3142;48.206;11.550;2022-11-14T04:08:16;95749.72;;;6.16;86.46
6218;BME280;3142;48.206;11.550;2022-11-14T04:10:45;95756.03;;;6.21;87.16
6218;BME280;3142;48.206;11.550;2022-11-14T04:13:12;95779.34;;;6.30;86.72
6218;BME280;3142;48.206;11.550;2022-11-14T04:15:39;95795.94;;;6.29;86.04
6218;BME280;3142;48.206;11.550;2022-11-14T04:18:05;95767.50;;;6.35;87.04
6218;BME280;3142;48.206;11.550;2022-11-14T04:20:33;95781.88;;;6.46;86.42
6218;BME280;3142;48.206;11.550;2022-11-14T04:22:59;95772.06;;;6.56;85.26
6218;BME280;3142;48.206;11.550;2022-11-14T04:25:26;95769.13;;;6.59;85.15
6218;BME280;3142;48.206;11.550;2022-11-14T04:27:52;95765.56;;;6.60;84.92
6218;BME280;3142;48.206;11.550;2022-11-14T04:30:19;95762.38;;;6.50;85.24
6218;BME280;3142;48.206;11.550;2022-11-14T04:32:46;95763.03;;;6.44;85.45
6218;BME280;3142;48.206;11.550;2022-11-14T04:35:13;95750.41;;;6.41;85.92
6218;BME280;3142;48.206;11.550;2022-11-14T04:37:41;95736.38;;;6.50;85.21
6218;BME280;3142;48.206;11.550;2022-11-14T04:40:08;95737.88;;;6.44;86.01
6218;BME280;3142;48.206;11.550;2022-11-14T04:42:35;95742.84;;;6.54;85.69
6218;BME280;3142;48.206;11.550;2022-11-14T04:45:01;95747.94;;;6.47;85.77
6218;BME280;3142;48.206;11.550;2022-11-14T04:47:28;95743.09;;;6.44;85.55
6218;BME280;3142;48.206;11.550;2022-11-14T04:49:54;95740.94;;;6.48;86.35
6218;BME280;3142;48.206;11.550;2022-11-14T04:52:21;95729.91;;;6.46;85.32
6218;BME280;3142;48.206;11.550;2022-11-14T04:54:49;95724.59;;;6.39;85.77
6218;BME280;3142;48.206;11.550;2022-11-14T04:57:15;95729.78;;;6.39;85.95
6218;BME280;3142;48.206;11.550;2022-11-14T04:59:42;95733.38;;;6.38;85.43
6218;BME280;3142;48.206;11.550;2022-11-14T05:02:08;95725.63;;;6.30;85.53
6218;BME280;3142;48.206;11.550;2022-11-14T05:04:35;95733.13;;;6.25;85.87
6218;BME280;3142;48.206;11.550;2022-11-14T05:07:01;95731.88;;;6.21;85.71
6218;BME280;3142;48.206;11.550;2022-11-14T05:09:28;95733.22;;;6.09;86.01
6218;BME280;3142;48.206;11.550;2022-11-14T05:11:56;95727.00;;;6.18;85.93
6218;BME280;3142;48.206;11.550;2022-11-14T05:14:22;95729.94;;;6.15;86.08
6218;BME280;3142;48.206;11.550;2022-11-14T05:16:49;95711.25;;;6.19;86.63
6218;BME280;3142;48.206;11.550;2022-11-14T05:19:15;95719.50;;;6.23;86.31
6218;BME280;3142;48.206;11.550;2022-11-14T05:21:41;95734.81;;;6.41;86.17
6218;BME280;3142;48.206;11.550;2022-11-14T05:24:08;95743.31;;;6.35;85.54
6218;BME280;3142;48.206;11.550;2022-11-14T05:26:34;95734.31;;;6.14;86.42
6218;BME280;3142;48.206;11.550;2022-11-14T05:29:02;95735.53;;;6.04;87.49
6218;BME280;3142;48.206;11.550;2022-11-14T05:31:29;95730.09;;;6.13;87.43
6218;BME280;3142;48.206;11.550;2022-11-14T05:33:55;95725.69;;;6.22;87.60
6218;BME280;3142;48.206;11.550;2022-11-14T05:36:22;95722.94;;;6.15;87.50
6218;BME280;3142;48.206;11.550;2022-11-14T05:38:48;95720.50;;;6.22;87.42
6218;BME280;3142;48.206;11.550;2022-11-14T05:41:16;95732.72;;;6.36;87.80
6218;BME280;3142;48.206;11.550;2022-11-14T05:43:44;95730.91;;;6.45;87.08
6218;BME280;3142;48.206;11.550;2022-11-14T05:46:13;95737.19;;;6.50;87.38
6218;BME280;3142;48.206;11.550;2022-11-14T05:48:40;95732.63;;;6.52;86.51
6218;BME280;3142;48.206;11.550;2022-11-14T05:51:09;95743.19;;;6.51;86.88
6218;BME280;3142;48.206;11.550;2022-11-14T05:53:36;95756.19;;;6.51;86.47
6218;BME280;3142;48.206;11.550;2022-11-14T05:56:05;95763.75;;;6.38;86.49
6218;BME280;3142;48.206;11.550;2022-11-14T05:58:32;95769.78;;;6.30;86.35
6218;BME280;3142;48.206;11.550;2022-11-14T06:01:03;95775.38;;;6.19;87.16
6218;BME280;3142;48.206;11.550;2022-11-14T06:03:33;95773.06;;;6.24;87.73
6218;BME280;3142;48.206;11.550;2022-11-14T06:06:01;95775.75;;;6.39;87.40
6218;BME280;3142;48.206;11.550;2022-11-14T06:08:28;95780.13;;;6.38;86.90
6218;BME280;3142;48.206;11.550;2022-11-14T06:10:55;95779.84;;;6.33;87.18
6218;BME280;3142;48.206;11.550;2022-11-14T06:13:26;95775.56;;;6.17;86.85
6218;BME280;3142;48.206;11.550;2022-11-14T06:15:57;95785.00;;;6.10;87.68
6218;BME280;3142;48.206;11.550;2022-11-14T06:18:23;95781.47;;;6.03;87.78
6218;BME280;3142;48.206;11.550;2022-11-14T06:20:51;95792.66;;;6.04;88.63
6218;BME280;3142;48.206;11.550;2022-11-14T06:23:18;95782.84;;;6.14;88.60
6218;BME280;3142;48.206;11.550;2022-11-14T06:25:44;95792.25;;;6.15;88.40
6218;BME280;3142;48.206;11.550;2022-11-14T06:28:11;95785.97;;;6.09;88.63
6218;BME280;3142;48.206;11.550;2022-11-14T06:30:37;95792.00;;;6.02;88.60
6218;BME280;3142;48.206;11.550;2022-11-14T06:33:05;95793.84;;;5.85;88.37
6218;BME280;3142;48.206;11.550;2022-11-14T06:35:32;95785.41;;;5.91;89.17
6218;BME280;3142;48.206;11.550;2022-11-14T06:38:00;95779.88;;;5.94;89.04
6218;BME280;3142;48.206;11.550;2022-11-14T06:40:27;95786.06;;;5.93;89.11
6218;BME280;3142;48.206;11.550;2022-11-14T06:42:54;95783.75;;;5.98;89.36
6218;BME280;3142;48.206;11.550;2022-11-14T06:45:20;95787.50;;;5.96;89.07
6218;BME280;3142;48.206;11.550;2022-11-14T06:47:47;95790.56;;;5.99;89.51
6218;BME280;3142;48.206;11.550;2022-11-14T06:50:13;95797.94;;;6.18;89.00
6218;BME280;3142;48.206;11.550;2022-11-14T06:52:40;95801.28;;;6.35;88.49
6218;BME280;3142;48.206;11.550;2022-11-14T06:55:08;95804.97;;;6.41;88.41
6218;BME280;3142;48.206;11.550;2022-11-14T06:57:34;95803.00;;;6.43;87.86
6218;BME280;3142;48.206;11.550;2022-11-14T07:00:02;95802.31;;;6.49;88.62
6218;BME280;3142;48.206;11.550;2022-11-14T07:02:29;95800.06;;;6.46;87.68
6218;BME280;3142;48.206;11.550;2022-11-14T07:04:55;95804.03;;;6.34;87.04
6218;BME280;3142;48.206;11.550;2022-11-14T07:07:22;95796.59;;;6.31;87.59
6218;BME280;3142;48.206;11.550;2022-11-14T07:09:49;95792.31;;;6.38;87.54
6218;BME280;3142;48.206;11.550;2022-11-14T07:12:17;95783.59;;;6.53;86.85
6218;BME280;3142;48.206;11.550;2022-11-14T07:14:43;95790.72;;;6.60;86.60
6218;BME280;3142;48.206;11.550;2022-11-14T07:17:09;95779.34;;;6.61;86.59
6218;BME280;3142;48.206;11.550;2022-11-14T07:19:36;95775.53;;;6.71;85.89
6218;BME280;3142;48.206;11.550;2022-11-14T07:22:02;95779.22;;;6.77;85.93
6218;BME280;3142;48.206;11.550;2022-11-14T07:24:29;95774.22;;;6.75;86.11
6218;BME280;3142;48.206;11.550;2022-11-14T07:26:55;95764.97;;;6.73;86.27
6218;BME280;3142;48.206;11.550;2022-11-14T07:29:23;95780.31;;;6.82;85.67
6218;BME280;3142;48.206;11.550;2022-11-14T07:31:49;95782.91;;;6.82;85.52
6218;BME280;3142;48.206;11.550;2022-11-14T07:34:16;95780.66;;;6.79;85.26
6218;BME280;3142;48.206;11.550;2022-11-14T07:36:43;95786.91;;;6.70;86.16
6218;BME280;3142;48.206;11.550;2022-11-14T07:39:09;95790.50;;;6.69;86.05
6218;BME280;3142;48.206;11.550;2022-11-14T07:41:36;95787.16;;;6.61;85.94
6218;BME280;3142;48.206;11.550;2022-11-14T07:44:03;95789.50;;;6.47;86.18
6218;BME280;3142;48.206;11.550;2022-11-14T07:46:30;95786.28;;;6.45;86.04
6218;BME280;3142;48.206;11.550;2022-11-14T07:48:57;95795.06;;;6.44;85.99
6218;BME280;3142;48.206;11.550;2022-11-14T07:51:23;95798.53;;;6.29;85.77
6218;BME280;3142;48.206;11.550;2022-11-14T07:53:50;95788.19;;;6.20;85.61
6218;BME280;3142;48.206;11.550;2022-11-14T07:56:17;95784.06;;;6.03;86.26
6218;BME280;3142;48.206;11.550;2022-11-14T07:58:44;95780.22;;;5.91;87.31
6218;BME280;3142;48.206;11.550;2022-11-14T08:01:11;95768.69;;;5.85;87.47
6218;BME280;3142;48.206;11.550;2022-11-14T08:03:39;95765.22;;;6.01;87.38
6218;BME280;3142;48.206;11.550;2022-11-14T08:06:07;95759.84;;;6.11;87.21
6218;BME280;3142;48.206;11.550;2022-11-14T08:08:35;95761.69;;;6.25;86.84
6218;BME280;3142;48.206;11.550;2022-11-14T08:11:02;95772.25;;;6.23;86.55
6218;BME280;3142;48.206;11.550;2022-11-14T08:13:29;95760.28;;;6.14;85.93
6218;BME280;3142;48.206;11.550;2022-11-14T08:15:55;95762.22;;;6.20;86.66
6218;BME280;3142;48.206;11.550;2022-11-14T08:18:24;95751.94;;;6.27;86.19
6218;BME280;3142;48.206;11.550;2022-11-14T08:20:51;95759.38;;;6.30;86.09
6218;BME280;3142;48.206;11.550;2022-11-14T08:23:21;95756.94;;;6.37;86.29
6218;BME280;3142;48.206;11.550;2022-11-14T08:25:48;95756.41;;;6.41;86.46
6218;BME280;3142;48.206;11.550;2022-11-14T08:28:14;95752.66;;;6.67;86.40
6218;BME280;3142;48.206;11.550;2022-11-14T08:30:41;95766.88;;;6.79;85.01
6218;BME280;3142;48.206;11.550;2022-11-14T08:33:07;95755.47;;;6.80;85.69
6218;BME280;3142;48.206;11.550;2022-11-14T08:35:34;95751.94;;;6.96;83.99
6218;BME280;3142;48.206;11.550;2022-11-14T08:38:02;95738.25;;;7.17;84.19
6218;BME280;3142;48.206;11.550;2022-11-14T08:40:28;95732.81;;;7.41;83.69
6218;BME280;3142;48.206;11.550;2022-11-14T08:42:58;95732.53;;;7.65;81.49
6218;BME280;3142;48.206;11.550;2022-11-14T08:45:24;95738.47;;;7.59;82.01
6218;BME280;3142;48.206;11.550;2022-11-14T08:47:51;95738.81;;;7.56;80.94
6218;BME280;3142;48.206;11.550;2022-11-14T08:50:18;95743.66;;;7.59;82.27
6218;BME280;3142;48.206;11.550;2022-11-14T08:52:48;95758.31;;;7.46;81.62
6218;BME280;3142;48.206;11.550;2022-11-14T08:55:16;95771.16;;;7.09;81.44
6218;BME280;3142;48.206;11.550;2022-11-14T08:57:43;95770.13;;;6.96;82.67
6218;BME280;3142;48.206;11.550;2022-11-14T09:00:10;95774.78;;;6.86;83.19
6218;BME280;3142;48.206;11.550;2022-11-14T09:02:37;95764.63;;;7.13;82.39
6218;BME280;3142;48.206;11.550;2022-11-14T09:05:04;95765.19;;;7.38;82.18
6218;BME280;3142;48.206;11.550;2022-11-14T09:07:31;95759.72;;;7.63;80.71
6218;BME280;3142;48.206;11.550;2022-11-14T09:09:57;95741.59;;;7.69;81.62
6218;BME280;3142;48.206;11.550;2022-11-14T09:12:25;95727.75;;;7.84;81.28
6218;BME280;3142;48.206;11.550;2022-11-14T09:14:51;95729.41;;;8.06;80.66
6218;BME280;3142;48.206;11.550;2022-11-14T09:17:18;95725.53;;;8.17;79.50
6218;BME280;3142;48.206;11.550;2022-11-14T09:19:44;95726.78;;;8.21;79.60
6218;BME280;3142;48.206;11.550;2022-11-14T09:22:11;95735.47;;;8.28;78.66
6218;BME280;3142;48.206;11.550;2022-11-14T09:24:37;95735.84;;;8.40;78.14
6218;BME280;3142;48.206;11.550;2022-11-14T09:27:04;95750.69;;;8.39;76.90
6218;BME280;3142;48.206;11.550;2022-11-14T09:29:32;95744.66;;;8.60;77.89
6218;BME280;3142;48.206;11.550;2022-11-14T09:31:58;95739.59;;;9.01;75.27
6218;BME280;3142;48.206;11.550;2022-11-14T09:34:25;95746.22;;;9.25;75.20
6218;BME280;3142;48.206;11.550;2022-11-14T09:36:51;95746.41;;;9.24;74.40
6218;BME280;3142;48.206;11.550;2022-11-14T09:39:18;95748.59;;;8.99;74.85
6218;BME280;3142;48.206;11.550;2022-11-14T09:41:53;95749.94;;;9.16;75.47
6218;BME280;3142;48.206;11.550;2022-11-14T09:44:35;95753.47;;;9.30;75.46
6218;BME280;3142;48.206;11.550;2022-11-14T09:47:09;95763.28;;;9.56;74.86
6218;BME280;3142;48.206;11.550;2022-11-14T09:49:38;95763.97;;;9.71;74.77
6218;BME280;3142;48.206;11.550;2022-11-14T09:52:14;95750.44;;;9.95;73.75
6218;BME280;3142;48.206;11.550;2022-11-14T09:54:51;95756.66;;;9.94;73.42
6218;BME280;3142;48.206;11.550;2022-11-14T09:57:19;95759.75;;;9.70;73.84
6218;BME280;3142;48.206;11.550;2022-11-14T09:59:48;95761.53;;;9.63;74.43
6218;BME280;3142;48.206;11.550;2022-11-14T10:02:24;95773.16;;;9.60;74.81
6218;BME280;3142;48.206;11.550;2022-11-14T10:05:02;95774.06;;;9.74;75.59
6218;BME280;3142;48.206;11.550;2022-11-14T10:07:40;95769.78;;;9.73;75.35
6218;BME280;3142;48.206;11.550;2022-11-14T10:10:20;95776.06;;;9.78;74.59
6218;BME280;3142;48.206;11.550;2022-11-14T10:12:57;95772.00;;;9.69;74.09
6218;BME280;3142;48.206;11.550;2022-11-14T10:15:30;95756.63;;;9.88;74.17
6218;BME280;3142;48.206;11.550;2022-11-14T10:18:14;95761.38;;;10.19;72.94
6218;BME280;3142;48.206;11.550;2022-11-14T10:20:48;95766.50;;;10.33;72.98
6218;BME280;3142;48.206;11.550;2022-11-14T10:23:25;95764.94;;;10.46;72.42
6218;BME280;3142;48.206;11.550;2022-11-14T10:26:08;95763.81;;;10.88;71.18
6218;BME280;3142;48.206;11.550;2022-11-14T10:28:47;95763.16;;;11.72;69.70
6218;BME280;3142;48.206;11.550;2022-11-14T10:31:29;95762.09;;;11.99;67.20
6218;BME280;3142;48.206;11.550;2022-11-14T10:34:05;95755.94;;;11.54;68.03
6218;BME280;3142;48.206;11.550;2022-11-14T10:36:54;95759.56;;;11.60;67.68
6218;BME280;3142;48.206;11.550;2022-11-14T10:39:27;95754.09;;;11.61;68.25
6218;BME280;3142;48.206;11.550;2022-11-14T10:42:01;95765.84;;;11.25;68.37
6218;BME280;3142;48.206;11.550;2022-11-14T10:44:33;95769.44;;;11.31;68.93
6218;BME280;3142;48.206;11.550;2022-11-14T10:47:07;95770.06;;;11.13;69.89
6218;BME280;3142;48.206;11.550;2022-11-14T10:49:36;95769.63;;;10.70;71.00
6218;BME280;3142;48.206;11.550;2022-11-14T10:52:05;95766.91;;;10.30;72.43
6218;BME280;3142;48.206;11.550;2022-11-14T10:54:39;95772.44;;;10.21;72.87
6218;BME280;3142;48.206;11.550;2022-11-14T10:57:14;95782.50;;;10.17;73.56
6218;BME280;3142;48.206;11.550;2022-11-14T10:59:41;95779.34;;;9.87;73.68
6218;BME280;3142;48.206;11.550;2022-11-14T11:02:10;95786.81;;;9.90;74.15
6218;BME280;3142;48.206;11.550;2022-11-14T11:04:38;95789.84;;;10.00;73.73
6218;BME280;3142;48.206;11.550;2022-11-14T11:07:22;95794.72;;;10.03;73.62
6218;BME280;3142;48.206;11.550;2022-11-14T11:10:19;95792.03;;;9.97;73.63
6218;BME280;3142;48.206;11.550;2022-11-14T11:13:03;95793.63;;;9.91;74.68
6218;BME280;3142;48.206;11.550;2022-11-14T11:15:31;95801.91;;;9.60;75.71
6218;BME280;3142;48.206;11.550;2022-11-14T11:18:23;95807.53;;;9.36;77.26
6218;BME280;3142;48.206;11.550;2022-11-14T11:21:01;95810.19;;;9.42;77.88
6218;BME280;3142;48.206;11.550;2022-11-14T11:23:28;95814.59;;;9.70;76.92
6218;BME280;3142;48.206;11.550;2022-11-14T11:25:58;95823.22;;;9.64;76.58
6218;BME280;3142;48.206;11.550;2022-11-14T11:28:30;95825.63;;;9.65;76.52
6218;BME280;3142;48.206;11.550;2022-11-14T11:30:58;95828.94;;;9.53;77.53
6218;BME280;3142;48.206;11.550;2022-11-14T11:33:28;95830.66;;;9.39;77.96
6218;BME280;3142;48.206;11.550;2022-11-14T11:35:56;95828.81;;;9.33;77.67
6218;BME280;3142;48.206;11.550;2022-11-14T11:38:25;95825.72;;;9.23;77.77
6218;BME280;3142;48.206;11.550;2022-11-14T11:40:59;95837.69;;;9.17;77.65
6218;BME280;3142;48.206;11.550;2022-11-14T11:43:30;95823.50;;;9.75;76.21
6218;BME280;3142;48.206;11.550;2022-11-14T11:46:03;95814.94;;;10.23;75.85
6218;BME280;3142;48.206;11.550;2022-11-14T11:48:33;95823.97;;;10.75;74.61
6218;BME280;3142;48.206;11.550;2022-11-14T11:51:03;95818.00;;;11.20;73.18
6218;BME280;3142;48.206;11.550;2022-11-14T11:53:34;95827.50;;;11.28;72.76
6218;BME280;3142;48.206;11.550;2022-11-14T11:56:05;95822.66;;;11.25;72.12
6218;BME280;3142;48.206;11.550;2022-11-14T11:58:39;95821.44;;;11.34;72.45
6218;BME280;3142;48.206;11.550;2022-11-14T12:01:09;95818.03;;;11.53;72.28
6218;BME280;3142;48.206;11.550;2022-11-14T12:03:37;95819.81;;;11.73;72.07
6218;BME280;3142;48.206;11.550;2022-11-14T12:06:12;95818.03;;;11.80;71.95
6218;BME280;3142;48.206;11.550;2022-11-14T12:08:50;95814.38;;;11.94;70.75
6218;BME280;3142;48.206;11.550;2022-11-14T12:11:24;95815.53;;;12.05;70.43
6218;BME280;3142;48.206;11.550;2022-11-14T12:14:04;95815.94;;;12.08;69.66
6218;BME280;3142;48.206;11.550;2022-11-14T12:16:51;95815.88;;;12.28;69.11
6218;BME280;3142;48.206;11.550;2022-11-14T12:19:45;95810.81;;;12.33;69.78
6218;BME280;3142;48.206;11.550;2022-11-14T12:22:39;95819.69;;;12.39;69.03
6218;BME280;3142;48.206;11.550;2022-11-14T12:25:20;95811.22;;;12.37;69.31
6218;BME280;3142;48.206;11.550;2022-11-14T12:28:04;95822.47;;;12.44;68.04
6218;BME280;3142;48.206;11.550;2022-11-14T12:30:37;95829.50;;;12.57;69.05
6218;BME280;3142;48.206;11.550;2022-11-14T12:33:08;95820.75;;;12.69;67.86
6218;BME280;3142;48.206;11.550;2022-11-14T12:35:37;95838.91;;;12.78;68.40
6218;BME280;3142;48.206;11.550;2022-11-14T12:38:14;95832.56;;;12.92;68.86
6218;BME280;3142;48.206;11.550;2022-11-14T12:40:49;95839.06;;;13.14;67.56
6218;BME280;3142;48.206;11.550;2022-11-14T12:43:27;95835.59;;;13.27;68.37
6218;BME280;3142;48.206;11.550;2022-11-14T12:45:58;95831.03;;;13.41;68.02
6218;BME280;3142;48.206;11.550;2022-11-14T12:48:33;95832.53;;;13.55;67.33
6218;BME280;3142;48.206;11.550;2022-11-14T12:51:02;95827.03;;;13.63;66.81
6218;BME280;3142;48.206;11.550;2022-11-14T12:53:39;95830.69;;;13.62;66.42
6218;BME280;3142;48.206;11.550;2022-11-14T12:59:25;95842.84;;;13.56;66.83
6218;BME280;3142;48.206;11.550;2022-11-14T13:02:18;95833.94;;;13.32;66.53
6218;BME280;3142;48.206;11.550;2022-11-14T13:05:01;95837.63;;;13.25;66.31
6218;BME280;3142;48.206;11.550;2022-11-14T13:07:44;95832.69;;;13.03;66.39
6218;BME280;3142;48.206;11.550;2022-11-14T13:10:15;95840.00;;;12.95;66.62
6218;BME280;3142;48.206;11.550;2022-11-14T13:12:56;95834.97;;;12.93;66.73
6218;BME280;3142;48.206;11.550;2022-11-14T13:15:47;95830.97;;;12.84;66.33
6218;BME280;3142;48.206;11.550;2022-11-14T13:18:32;95837.25;;;12.83;67.09
6218;BME280;3142;48.206;11.550;2022-11-14T13:21:20;95823.72;;;12.80;68.00
6218;BME280;3142;48.206;11.550;2022-11-14T13:24:07;95829.84;;;12.67;67.30
6218;BME280;3142;48.206;11.550;2022-11-14T13:26:35;95831.09;;;12.64;68.77
6218;BME280;3142;48.206;11.550;2022-11-14T13:29:01;95830.88;;;12.66;68.29
6218;BME280;3142;48.206;11.550;2022-11-14T13:31:43;95824.59;;;12.67;69.10
6218;BME280;3142;48.206;11.550;2022-11-14T13:34:28;95816.72;;;12.67;69.15